createdAt,value
2023-02-09T00:01:24.447Z,102911.28
2023-02-09T00:03:51.714Z,102901.72
2023-02-09T00:06:21.777Z,102905.00
2023-02-09T00:08:48.521Z,102897.09
2023-02-09T00:11:45.648Z,102896.84
2023-02-09T00:14:13.882Z,102890.03
2023-02-09T00:16:40.986Z,102895.19
2023-02-09T00:19:07.785Z,102894.66
2023-02-09T00:21:34.261Z,102878.34
2023-02-09T00:24:00.801Z,102882.94
2023-02-09T00:26:27.691Z,102870.44
2023-02-09T00:28:54.229Z,102873.16
2023-02-09T00:31:20.814Z,102879.97
2023-02-09T00:33:47.516Z,102869.31
2023-02-09T00:36:14.543Z,102878.03
2023-02-09T00:38:41.604Z,102872.59
2023-02-09T00:41:08.356Z,102872.59
2023-02-09T00:43:35.161Z,102856.56
2023-02-09T00:46:02.427Z,102862.81
2023-02-09T00:48:29.731Z,102862.00
2023-02-09T00:50:56.259Z,102862.28
2023-02-09T00:53:23.706Z,102854.91
2023-02-09T00:55:51.388Z,102848.41
2023-02-09T00:58:18.560Z,102853.56
2023-02-09T01:00:45.623Z,102859.53
2023-02-09T01:03:12.384Z,102870.94
2023-02-09T01:05:40.370Z,102861.41
2023-02-09T01:08:07.237Z,102866.06
2023-02-09T01:10:33.788Z,102868.50
2023-02-09T01:13:00.272Z,102865.22
2023-02-09T01:15:26.844Z,102864.97
2023-02-09T01:17:53.255Z,102862.25
2023-02-09T01:20:19.791Z,102859.25
2023-02-09T01:22:46.242Z,102861.69
2023-02-09T01:25:12.719Z,102848.09
2023-02-09T01:27:39.197Z,102850.53
2023-02-09T01:30:06.130Z,102853.81
2023-02-09T01:32:32.650Z,102851.84
2023-02-09T01:34:59.129Z,102856.75
2023-02-09T01:37:25.619Z,102858.94
2023-02-09T01:39:52.111Z,102859.72
2023-02-09T01:42:20.701Z,102868.72
2023-02-09T01:44:47.084Z,102866.25
2023-02-09T01:47:15.655Z,102871.16
2023-02-09T01:49:44.208Z,102867.88
2023-02-09T01:52:15.500Z,102862.19
2023-02-09T01:54:45.901Z,102859.69
2023-02-09T01:57:17.118Z,102837.72
2023-02-09T01:59:46.824Z,102856.72
2023-02-09T02:02:14.701Z,102849.66
2023-02-09T02:04:44.660Z,102849.13
2023-02-09T02:07:25.205Z,102843.69
2023-02-09T02:09:52.309Z,102839.84
2023-02-09T02:12:19.084Z,102838.25
2023-02-09T02:14:45.714Z,102845.28
2023-02-09T02:17:24.148Z,102846.94
2023-02-09T02:20:18.688Z,102847.47
2023-02-09T02:23:06.586Z,102838.50
2023-02-09T02:25:39.045Z,102842.84
2023-02-09T02:28:14.640Z,102842.03
2023-02-09T02:31:16.632Z,102838.22
2023-02-09T02:34:00.550Z,102843.09
2023-02-09T02:36:31.562Z,102838.75
2023-02-09T02:39:16.370Z,102845.00
2023-02-09T02:42:20.075Z,102833.53
2023-02-09T02:44:59.265Z,102843.63
2023-02-09T02:47:28.672Z,102834.09
2023-02-09T02:50:00.444Z,102836.28
2023-02-09T02:52:26.947Z,102839.53
2023-02-09T02:55:02.529Z,102842.75
2023-02-09T02:57:33.281Z,102844.16
2023-02-09T03:00:26.245Z,102840.88
2023-02-09T03:02:55.644Z,102829.97
2023-02-09T03:05:24.811Z,102838.09
2023-02-09T03:07:51.697Z,102837.00
2023-02-09T03:10:34.940Z,102828.00
2023-02-09T03:13:04.408Z,102823.38
2023-02-09T03:19:34.762Z,102825.53
2023-02-09T03:22:29.028Z,102818.19
2023-02-09T03:25:06.299Z,102822.81
2023-02-09T03:27:41.431Z,102812.16
2023-02-09T03:30:11.453Z,102832.03
2023-02-09T03:32:40.289Z,102819.53
2023-02-09T03:35:08.396Z,102829.88
2023-02-09T03:37:34.870Z,102823.88
2023-02-09T03:40:02.048Z,102822.25
2023-02-09T03:42:28.522Z,102823.31
2023-02-09T03:44:54.960Z,102809.97
2023-02-09T03:47:21.485Z,102807.78
2023-02-09T03:49:47.918Z,102821.41
2023-02-09T03:52:16.360Z,102818.94
2023-02-09T03:54:42.989Z,102810.50
2023-02-09T03:57:10.349Z,102810.75
2023-02-09T03:59:37.778Z,102799.66
2023-02-09T04:02:07.259Z,102798.28
2023-02-09T04:04:34.253Z,102793.38
2023-02-09T04:07:00.838Z,102798.00
2023-02-09T04:09:28.024Z,102802.59
2023-02-09T04:11:55.839Z,102802.88
2023-02-09T04:14:22.659Z,102798.00
2023-02-09T04:16:49.214Z,102791.44
2023-02-09T04:19:16.536Z,102797.97
2023-02-09T04:21:43.348Z,102803.66
2023-02-09T04:24:10.532Z,102791.44
2023-02-09T04:26:37.128Z,102801.19
2023-02-09T04:29:04.713Z,102798.22
2023-02-09T04:31:31.791Z,102790.34
2023-02-09T04:33:58.439Z,102777.56
2023-02-09T04:36:24.950Z,102778.97
2023-02-09T04:38:51.484Z,102773.25
2023-02-09T04:41:18.230Z,102779.22
2023-02-09T04:43:46.368Z,102765.09
2023-02-09T04:46:14.918Z,102774.06
2023-02-09T04:48:41.735Z,102764.28
2023-02-09T04:51:08.377Z,102768.06
2023-02-09T04:53:34.916Z,102768.59
2023-02-09T04:56:01.565Z,102747.66
2023-02-09T04:58:46.432Z,102757.44
2023-02-09T05:01:19.082Z,102761.50
2023-02-09T05:03:45.705Z,102759.09
2023-02-09T05:06:12.208Z,102755.03
2023-02-09T05:08:38.747Z,102769.69
2023-02-09T05:11:05.522Z,102760.66
2023-02-09T05:13:32.018Z,102777.50
2023-02-09T05:15:58.496Z,102786.78
2023-02-09T05:18:25.689Z,102785.69
2023-02-09T05:20:52.566Z,102779.97
2023-02-09T05:23:19.235Z,102778.09
2023-02-09T05:25:46.155Z,102780.81
2023-02-09T05:28:12.938Z,102777.56
2023-02-09T05:30:39.657Z,102775.63
2023-02-09T05:33:06.240Z,102771.56
2023-02-09T05:35:32.845Z,102762.56
2023-02-09T05:37:59.303Z,102760.06
2023-02-09T05:40:25.768Z,102753.84
2023-02-09T05:42:52.287Z,102753.28
2023-02-09T05:45:18.935Z,102745.97
2023-02-09T05:47:46.586Z,102744.06
2023-02-09T05:50:13.098Z,102737.28
2023-02-09T05:52:39.559Z,102743.81
2023-02-09T05:55:06.383Z,102743.81
2023-02-09T05:57:32.843Z,102740.31
2023-02-09T05:59:59.286Z,102744.38
2023-02-09T06:02:25.875Z,102746.56
2023-02-09T06:04:52.343Z,102754.97
2023-02-09T06:07:18.796Z,102762.00
2023-02-09T06:09:45.254Z,102770.19
2023-02-09T06:12:11.768Z,102764.72
2023-02-09T06:14:38.242Z,102782.09
2023-02-09T06:17:04.752Z,102780.47
2023-02-09T06:19:31.257Z,102781.31
2023-02-09T06:21:57.745Z,102783.81
2023-02-09T06:24:24.264Z,102780.28
2023-02-09T06:26:50.747Z,102775.94
2023-02-09T06:29:17.210Z,102785.44
2023-02-09T06:31:43.808Z,102785.44
2023-02-09T06:34:10.483Z,102785.72
2023-02-09T06:36:37.008Z,102788.16
2023-02-09T06:39:08.026Z,102782.19
2023-02-09T06:41:34.502Z,102789.56
2023-02-09T06:44:01.023Z,102801.47
2023-02-09T06:46:28.641Z,102798.72
2023-02-09T06:48:55.396Z,102795.44
2023-02-09T06:51:22.268Z,102811.78
2023-02-09T06:53:49.145Z,102808.22
2023-02-09T06:56:16.076Z,102816.38
2023-02-09T06:58:42.603Z,102810.69
2023-02-09T07:01:12.071Z,102804.69
2023-02-09T07:03:38.834Z,102817.22
2023-02-09T07:06:08.616Z,102827.53
2023-02-09T07:08:36.134Z,102809.34
2023-02-09T07:11:08.191Z,102827.84
2023-02-09T07:13:34.988Z,102822.97
2023-02-09T07:16:02.724Z,102809.66
2023-02-09T07:18:29.277Z,102807.50
2023-02-09T07:21:01.401Z,102805.34
2023-02-09T07:23:28.336Z,102802.94
2023-02-09T07:25:54.890Z,102814.34
2023-02-09T07:28:22.116Z,102814.63
2023-02-09T07:30:50.205Z,102810.56
2023-02-09T07:33:17.033Z,102809.25
2023-02-09T07:35:43.516Z,102809.25
2023-02-09T07:38:10.334Z,102800.59
2023-02-09T07:40:38.577Z,102800.38
2023-02-09T07:43:06.587Z,102804.75
2023-02-09T07:45:33.734Z,102793.06
2023-02-09T07:48:00.372Z,102803.44
2023-02-09T07:50:27.195Z,102808.94
2023-02-09T07:52:54.916Z,102798.63
2023-02-09T07:55:21.730Z,102808.44
2023-02-09T07:57:48.189Z,102804.66
2023-02-09T08:00:15.445Z,102806.84
2023-02-09T08:02:43.395Z,102795.69
2023-02-09T08:05:21.361Z,102807.88
2023-02-09T08:07:48.251Z,102814.69
2023-02-09T08:10:17.103Z,102818.47
2023-02-09T08:13:02.608Z,102818.97
2023-02-09T08:15:31.810Z,102817.56
2023-02-09T08:18:02.339Z,102824.63
2023-02-09T08:20:31.041Z,102819.97
2023-02-09T08:23:05.647Z,102833.28
2023-02-09T08:25:32.851Z,102844.41
2023-02-09T08:28:01.213Z,102852.28
2023-02-09T08:30:27.714Z,102847.88
2023-02-09T08:32:54.332Z,102847.59
2023-02-09T08:35:20.843Z,102843.50
2023-02-09T08:37:47.417Z,102848.91
2023-02-09T08:40:15.210Z,102855.13
2023-02-09T08:42:41.833Z,102859.47
2023-02-09T08:45:08.952Z,102858.56
2023-02-09T08:47:35.480Z,102858.53
2023-02-09T08:50:02.132Z,102860.34
2023-02-09T08:52:28.706Z,102859.50
2023-02-09T08:54:55.179Z,102857.53
2023-02-09T08:57:23.116Z,102852.56
2023-02-09T08:59:50.699Z,102851.66
2023-02-09T09:02:17.476Z,102858.72
2023-02-09T09:04:44.086Z,102856.13
2023-02-09T09:07:10.521Z,102859.03
2023-02-09T09:09:36.948Z,102863.34
2023-02-09T09:12:03.588Z,102865.97
2023-02-09T09:14:31.451Z,102863.16
2023-02-09T09:16:58.640Z,102870.13
2023-02-09T09:19:26.294Z,102871.44
2023-02-09T09:21:52.848Z,102872.16
2023-02-09T09:24:19.898Z,102873.88
2023-02-09T09:26:46.402Z,102873.06
2023-02-09T09:29:13.063Z,102878.41
2023-02-09T09:31:39.587Z,102869.50
2023-02-09T09:34:06.179Z,102873.78
2023-02-09T09:36:32.703Z,102877.25
2023-02-09T09:38:59.181Z,102879.28
2023-02-09T09:41:31.602Z,102869.59
2023-02-09T09:43:59.395Z,102870.50
2023-02-09T09:46:36.552Z,102863.25
2023-02-09T09:49:04.642Z,102863.88
2023-02-09T09:51:33.901Z,102861.28
2023-02-09T09:54:03.043Z,102867.81
2023-02-09T09:56:31.343Z,102854.88
2023-02-09T09:58:59.499Z,102844.56
2023-02-09T10:01:28.691Z,102825.59
2023-02-09T10:04:00.911Z,102834.25
2023-02-09T10:06:30.539Z,102828.00
2023-02-09T10:09:07.963Z,102823.63
2023-02-09T10:11:51.819Z,102836.19
2023-02-09T10:14:18.472Z,102829.59
2023-02-09T10:16:45.087Z,102826.47
2023-02-09T10:19:27.372Z,102826.56
2023-02-09T10:21:54.792Z,102839.94
2023-02-09T10:24:34.483Z,102848.38
2023-02-09T10:27:17.452Z,102847.47
2023-02-09T10:29:44.017Z,102844.22
2023-02-09T10:32:15.185Z,102861.44
2023-02-09T10:34:45.205Z,102837.22
2023-02-09T10:37:15.431Z,102847.97
2023-02-09T10:39:42.391Z,102846.53
2023-02-09T10:42:18.045Z,102844.22
2023-02-09T10:44:49.578Z,102838.84
2023-02-09T10:47:19.102Z,102838.53
2023-02-09T10:50:10.651Z,102839.41
2023-02-09T10:52:40.775Z,102836.44
2023-02-09T10:55:35.069Z,102849.16
2023-02-09T10:58:11.814Z,102826.09
2023-02-09T11:00:41.264Z,102835.22
2023-02-09T11:03:21.450Z,102832.28
2023-02-09T11:06:17.202Z,102851.31
2023-02-09T11:08:48.692Z,102830.34
2023-02-09T11:11:30.524Z,102835.53
2023-02-09T11:13:57.584Z,102841.69
2023-02-09T11:16:55.554Z,102841.16
2023-02-09T11:19:40.074Z,102844.84
2023-02-09T11:22:11.889Z,102840.88
2023-02-09T11:24:58.677Z,102830.53
2023-02-09T11:27:27.995Z,102832.47
2023-02-09T11:30:19.348Z,102833.31
2023-02-09T11:32:49.069Z,102819.34
2023-02-09T11:35:20.051Z,102815.16
2023-02-09T11:37:56.099Z,102806.56
2023-02-09T11:40:41.394Z,102811.66
2023-02-09T11:43:18.817Z,102811.06
2023-02-09T11:45:47.055Z,102807.06
2023-02-09T11:48:32.016Z,102797.63
2023-02-09T11:51:09.819Z,102797.97
2023-02-09T11:54:00.658Z,102809.72
2023-02-09T11:56:28.738Z,102803.22
2023-02-09T11:59:03.810Z,102801.50
2023-02-09T12:02:04.445Z,102801.63
2023-02-09T12:04:59.091Z,102808.81
2023-02-09T12:07:41.979Z,102799.13
2023-02-09T12:10:28.760Z,102806.00
2023-02-09T12:13:19.740Z,102792.94
2023-02-09T12:16:00.589Z,102780.50
2023-02-09T12:18:30.523Z,102776.88
2023-02-09T12:20:59.854Z,102784.91
2023-02-09T12:23:31.656Z,102791.44
2023-02-09T12:26:16.468Z,102792.72
2023-02-09T12:28:44.141Z,102799.69
2023-02-09T12:31:23.404Z,102802.78
2023-02-09T12:34:02.547Z,102803.31
2023-02-09T12:36:34.190Z,102803.41
2023-02-09T12:39:05.546Z,102797.81
2023-02-09T12:41:35.032Z,102798.97
2023-02-09T12:44:10.674Z,102788.13
2023-02-09T12:46:46.808Z,102812.38
2023-02-09T12:49:17.690Z,102797.41
2023-02-09T12:51:55.426Z,102801.72
2023-02-09T12:54:51.541Z,102799.03
2023-02-09T12:57:18.797Z,102793.25
2023-02-09T12:59:59.075Z,102790.78
2023-02-09T13:02:52.967Z,102786.31
2023-02-09T13:05:33.688Z,102792.03
2023-02-09T13:08:21.876Z,102791.44
2023-02-09T13:10:51.020Z,102788.41
2023-02-09T13:13:35.615Z,102792.34
2023-02-09T13:16:04.933Z,102783.50
2023-02-09T13:18:34.192Z,102790.66
2023-02-09T13:21:22.596Z,102797.97
2023-02-09T13:24:09.240Z,102781.59
2023-02-09T13:26:46.852Z,102767.03
2023-02-09T13:29:21.335Z,102767.19
2023-02-09T13:31:50.043Z,102770.38
2023-02-09T13:34:42.703Z,102770.63
2023-02-09T13:37:21.275Z,102770.31
2023-02-09T13:39:55.945Z,102774.00
2023-02-09T13:42:25.040Z,102769.75
2023-02-09T13:44:57.129Z,102770.09
2023-02-09T13:47:25.119Z,102780.13
2023-02-09T13:50:02.208Z,102777.44
2023-02-09T13:52:38.970Z,102778.13
2023-02-09T13:55:32.082Z,102789.00
2023-02-09T13:58:03.275Z,102796.50
2023-02-09T14:00:42.471Z,102783.94
2023-02-09T14:03:21.870Z,102787.59
2023-02-09T14:05:51.169Z,102801.75
2023-02-09T14:08:20.075Z,102786.75
2023-02-09T14:10:55.311Z,102785.28
2023-02-09T14:13:21.936Z,102792.03
2023-02-09T14:16:09.649Z,102788.22
2023-02-09T14:18:43.140Z,102782.59
2023-02-09T14:21:15.444Z,102785.22
2023-02-09T14:23:47.810Z,102790.50
2023-02-09T14:26:14.225Z,102791.44
2023-02-09T14:28:49.107Z,102786.31
2023-02-09T14:31:21.567Z,102788.25
2023-02-09T14:33:50.333Z,102775.97
2023-02-09T14:36:29.156Z,102776.78
2023-02-09T14:39:21.002Z,102779.53
2023-02-09T14:41:57.250Z,102779.22
2023-02-09T14:44:24.306Z,102780.16
2023-02-09T14:46:53.618Z,102788.91
2023-02-09T14:49:21.561Z,102795.72
2023-02-09T14:51:50.316Z,102790.06
2023-02-09T14:54:26.273Z,102788.44
2023-02-09T14:56:54.779Z,102789.44
2023-02-09T14:59:22.129Z,102776.63
2023-02-09T15:01:51.411Z,102782.28
2023-02-09T15:04:18.325Z,102791.03
2023-02-09T15:06:53.927Z,102800.44
2023-02-09T15:09:36.798Z,102799.09
2023-02-09T15:12:05.802Z,102795.06
2023-02-09T15:14:42.582Z,102795.69
2023-02-09T15:17:17.398Z,102791.03
2023-02-09T15:19:44.858Z,102795.69
2023-02-09T15:22:16.017Z,102795.84
2023-02-09T15:24:44.567Z,102793.88
2023-02-09T15:27:34.876Z,102801.00
2023-02-09T15:30:04.578Z,102802.44
2023-02-09T15:32:31.571Z,102789.28
2023-02-09T15:34:58.087Z,102785.44
2023-02-09T15:37:28.428Z,102799.63
2023-02-09T15:39:59.525Z,102806.25
2023-02-09T15:42:44.622Z,102808.97
2023-02-09T15:45:41.069Z,102805.41
2023-02-09T15:48:08.957Z,102808.97
2023-02-09T15:50:38.849Z,102808.00
2023-02-09T15:53:14.702Z,102810.56
2023-02-09T15:55:42.780Z,102820.22
2023-02-09T15:58:15.051Z,102822.13
2023-02-09T16:00:41.815Z,102822.66
2023-02-09T16:03:19.967Z,102834.09
2023-02-09T16:05:49.755Z,102835.72
2023-02-09T16:08:28.190Z,102837.50
2023-02-09T16:10:54.717Z,102851.31
2023-02-09T16:13:21.353Z,102849.22
2023-02-09T16:15:49.077Z,102854.22
2023-02-09T16:18:15.737Z,102857.69
2023-02-09T16:20:49.755Z,102860.13
2023-02-09T16:23:21.324Z,102858.00
2023-02-09T16:25:50.417Z,102870.56
2023-02-09T16:28:17.845Z,102873.88
2023-02-09T16:30:56.688Z,102871.81
2023-02-09T16:33:25.228Z,102876.09
2023-02-09T16:35:57.228Z,102879.34
2023-02-09T16:38:25.560Z,102895.53
2023-02-09T16:40:54.471Z,102894.22
2023-02-09T16:43:22.219Z,102897.38
2023-02-09T16:46:02.400Z,102899.19
2023-02-09T16:48:32.543Z,102901.13
2023-02-09T16:50:59.279Z,102911.63
2023-02-09T16:53:27.042Z,102908.88
2023-02-09T16:55:53.739Z,102911.50
2023-02-09T16:58:20.332Z,102913.94
2023-02-09T17:00:46.889Z,102912.63
2023-02-09T17:03:30.253Z,102906.44
2023-02-09T17:05:57.804Z,102910.63
2023-02-09T17:08:27.726Z,102894.47
2023-02-09T17:10:56.098Z,102904.41
2023-02-09T17:13:23.073Z,102909.09
2023-02-09T17:15:54.944Z,102909.59
2023-02-09T17:18:40.798Z,102915.84
2023-02-09T17:21:12.297Z,102911.56
2023-02-09T17:23:38.739Z,102915.41
2023-02-09T17:26:05.289Z,102916.84
2023-02-09T17:28:31.789Z,102917.44
2023-02-09T17:31:01.682Z,102915.31
2023-02-09T17:33:31.973Z,102919.19
2023-02-09T17:38:46.768Z,102923.44
2023-02-09T17:41:22.461Z,102914.53
2023-02-09T17:43:52.425Z,102915.84
2023-02-09T17:46:19.640Z,102923.06
2023-02-09T17:48:47.549Z,102919.72
2023-02-09T17:51:23.334Z,102932.91
2023-02-09T17:53:50.028Z,102930.47
2023-02-09T17:56:16.845Z,102927.13
2023-02-09T17:58:44.461Z,102925.00
2023-02-09T18:01:41.435Z,102939.22
2023-02-09T18:04:16.793Z,102948.34
2023-02-09T18:06:43.503Z,102945.81
2023-02-09T18:09:12.453Z,102941.25
2023-02-09T18:11:46.458Z,102947.84
2023-02-09T18:14:14.347Z,102951.22
2023-02-09T18:16:42.519Z,102954.47
2023-02-09T18:19:10.446Z,102959.31
2023-02-09T18:21:39.269Z,102964.94
2023-02-09T18:24:06.377Z,102962.41
2023-02-09T18:26:33.901Z,102966.47
2023-02-09T18:29:00.372Z,102975.41
2023-02-09T18:31:26.870Z,102980.88
2023-02-09T18:33:54.110Z,102975.09
2023-02-09T18:36:20.720Z,102979.28
2023-02-09T18:38:48.431Z,102979.38
2023-02-09T18:41:14.980Z,102982.81
2023-02-09T18:43:41.441Z,102990.66
2023-02-09T18:46:08.013Z,102984.63
2023-02-09T18:48:34.661Z,102989.63
2023-02-09T18:51:01.134Z,102980.97
2023-02-09T18:53:27.693Z,102989.00
2023-02-09T18:55:54.143Z,103000.81
2023-02-09T18:58:20.647Z,103000.59
2023-02-09T19:00:47.139Z,102991.44
2023-02-09T19:03:13.958Z,102997.06
2023-02-09T19:05:40.873Z,102987.69
2023-02-09T19:08:07.445Z,102983.63
2023-02-09T19:10:35.991Z,102998.50
2023-02-09T19:13:03.883Z,103007.75
2023-02-09T19:15:32.770Z,103006.00
2023-02-09T19:18:00.159Z,103008.13
2023-02-09T19:20:29.052Z,103006.81
2023-02-09T19:22:56.413Z,103000.19
2023-02-09T19:25:25.548Z,103009.34
2023-02-09T19:27:52.745Z,103009.03
2023-02-09T19:30:24.838Z,103018.72
2023-02-09T19:32:55.601Z,103015.97
2023-02-09T19:35:22.845Z,103018.72
2023-02-09T19:37:53.818Z,103022.06
2023-02-09T19:40:27.528Z,103014.03
2023-02-09T19:42:55.399Z,103013.22
2023-02-09T19:45:22.239Z,103020.34
2023-02-09T19:47:48.784Z,103031.94
2023-02-09T19:50:16.054Z,103027.44
2023-02-09T19:52:45.712Z,103034.97
2023-02-09T19:55:12.836Z,103029.88
2023-02-09T19:57:39.353Z,103042.81
2023-02-09T20:00:06.618Z,103041.69
2023-02-09T20:02:33.099Z,103045.06
2023-02-09T20:04:59.546Z,103047.19
2023-02-09T20:07:26.090Z,103041.69
2023-02-09T20:09:52.924Z,103045.13
2023-02-09T20:12:21.618Z,103055.13
2023-02-09T20:14:48.553Z,103042.69
2023-02-09T20:17:15.028Z,103051.84
2023-02-09T20:19:41.573Z,103053.19
2023-02-09T20:22:07.978Z,103048.19
2023-02-09T20:24:34.533Z,103046.44
2023-02-09T20:27:01.065Z,103053.06
2023-02-09T20:29:27.572Z,103057.44
2023-02-09T20:31:54.172Z,103052.25
2023-02-09T20:34:20.753Z,103058.69
2023-02-09T20:36:51.180Z,103064.38
2023-02-09T20:39:17.870Z,103064.75
2023-02-09T20:42:07.228Z,103060.72
2023-02-09T20:44:53.059Z,103061.00
2023-02-09T20:47:19.674Z,103053.59
2023-02-09T20:49:46.345Z,103058.06
2023-02-09T20:52:13.066Z,103056.94
2023-02-09T20:54:39.696Z,103060.78
2023-02-09T20:57:06.253Z,103058.25
2023-02-09T20:59:34.026Z,103065.38
2023-02-09T21:02:01.057Z,103065.69
2023-02-09T21:04:29.930Z,103061.84
2023-02-09T21:06:57.692Z,103058.13
2023-02-09T21:09:26.518Z,103057.13
2023-02-09T21:11:53.966Z,103048.41
2023-02-09T21:14:32.335Z,103054.09
2023-02-09T21:17:05.715Z,103051.34
2023-02-09T21:19:34.043Z,103052.47
2023-02-09T21:22:00.721Z,103051.16
2023-02-09T21:24:27.229Z,103056.34
2023-02-09T21:26:53.774Z,103053.38
2023-02-09T21:29:20.270Z,103048.81
2023-02-09T21:31:46.757Z,103047.50
2023-02-09T21:34:16.667Z,103053.69
2023-02-09T21:36:43.573Z,103052.97
2023-02-09T21:39:10.146Z,103055.94
2023-02-09T21:41:55.357Z,103049.81
2023-02-09T21:44:21.896Z,103056.44
2023-02-09T21:46:49.525Z,103045.06
2023-02-09T21:49:16.281Z,103045.44
2023-02-09T21:51:43.117Z,103052.38
2023-02-09T21:54:14.417Z,103044.44
2023-02-09T21:56:40.925Z,103047.72
2023-02-09T21:59:07.660Z,103049.50
2023-02-09T22:01:34.503Z,103051.47
2023-02-09T22:04:01.384Z,103040.06
2023-02-09T22:06:30.019Z,103050.63
2023-02-09T22:08:56.639Z,103047.59
2023-02-09T22:11:23.137Z,103044.63
2023-02-09T22:13:49.664Z,103052.06
2023-02-09T22:16:21.451Z,103053.91
2023-02-09T22:18:48.284Z,103064.66
2023-02-09T22:21:14.767Z,103057.13
2023-02-09T22:23:41.253Z,103065.50
2023-02-09T22:26:07.991Z,103055.81
2023-02-09T22:28:36.512Z,103060.78
2023-02-09T22:31:08.930Z,103058.56
2023-02-09T22:33:35.978Z,103059.19
2023-02-09T22:36:11.862Z,103060.91
2023-02-09T22:38:38.756Z,103055.59
2023-02-09T22:41:21.198Z,103058.34
2023-02-09T22:44:02.308Z,103054.50
2023-02-09T22:46:31.697Z,103059.78
2023-02-09T22:49:00.796Z,103066.28
2023-02-09T22:51:30.311Z,103077.28
2023-02-09T22:53:58.058Z,103067.94
2023-02-09T22:56:25.588Z,103081.97
2023-02-09T22:58:56.275Z,103073.44
2023-02-09T23:01:23.211Z,103079.94
2023-02-09T23:03:50.265Z,103074.44
2023-02-09T23:06:19.617Z,103081.38
2023-02-09T23:08:46.306Z,103080.75
2023-02-09T23:11:17.098Z,103083.81
2023-02-09T23:13:44.455Z,103082.69
2023-02-09T23:16:16.300Z,103082.16
2023-02-09T23:18:47.618Z,103083.81
2023-02-09T23:21:15.735Z,103088.66
2023-02-09T23:23:42.353Z,103084.59
2023-02-09T23:26:09.261Z,103078.00
2023-02-09T23:28:35.779Z,103086.84
2023-02-09T23:31:06.273Z,103090.41
2023-02-09T23:33:34.296Z,103096.09
2023-02-09T23:36:09.612Z,103108.94
2023-02-09T23:38:36.018Z,103112.28
2023-02-09T23:41:14.833Z,103118.56
2023-02-09T23:43:41.750Z,103129.47
2023-02-09T23:46:12.046Z,103123.34
2023-02-09T23:48:38.666Z,103134.44
2023-02-09T23:51:11.756Z,103127.34
2023-02-09T23:53:38.231Z,103125.50
2023-02-09T23:56:05.461Z,103123.66
2023-02-09T23:58:38.351Z,103132.59
